sensor_id;sensor_type;location;lat;lon;timestamp;pressure;altitude;pressure_sealevel;temperature;humidity
6094;BME280;19964;42.060;24.700;2022-10-16T00:01:07;98185.38;;;10.12;92.10
6094;BME280;19964;42.060;24.700;2022-10-16T00:03:34;98192.50;;;10.23;91.12
6094;BME280;19964;42.060;24.700;2022-10-16T00:06:01;98191.91;;;10.15;91.89
6094;BME280;19964;42.060;24.700;2022-10-16T00:08:30;98185.59;;;9.91;92.14
6094;BME280;19964;42.060;24.700;2022-10-16T00:11:02;98199.75;;;9.88;93.49
6094;BME280;19964;42.060;24.700;2022-10-16T00:13:30;98203.31;;;9.87;93.24
6094;BME280;19964;42.060;24.700;2022-10-16T00:15:58;98204.53;;;9.78;93.69
6094;BME280;19964;42.060;24.700;2022-10-16T00:18:26;98195.78;;;9.66;94.57
6094;BME280;19964;42.060;24.700;2022-10-16T00:20:54;98206.34;;;9.52;96.36
6094;BME280;19964;42.060;24.700;2022-10-16T00:23:21;98197.41;;;9.48;96.45
6094;BME280;19964;42.060;24.700;2022-10-16T00:25:57;98213.13;;;9.53;96.90
6094;BME280;19964;42.060;24.700;2022-10-16T00:28:25;98177.53;;;9.22;97.44
6094;BME280;19964;42.060;24.700;2022-10-16T00:30:52;98197.63;;;9.33;97.97
6094;BME280;19964;42.060;24.700;2022-10-16T00:33:20;98196.81;;;9.26;98.34
6094;BME280;19964;42.060;24.700;2022-10-16T00:35:47;98198.59;;;9.06;100.00
6094;BME280;19964;42.060;24.700;2022-10-16T00:38:14;98192.81;;;8.91;100.00
6094;BME280;19964;42.060;24.700;2022-10-16T00:40:41;98209.09;;;8.91;100.00
6094;BME280;19964;42.060;24.700;2022-10-16T00:43:31;98208.16;;;8.99;100.00
6094;BME280;19964;42.060;24.700;2022-10-16T00:45:59;98207.53;;;8.90;100.00
6094;BME280;19964;42.060;24.700;2022-10-16T00:48:26;98211.28;;;8.88;100.00
6094;BME280;19964;42.060;24.700;2022-10-16T00:50:53;98209.91;;;8.92;100.00
6094;BME280;19964;42.060;24.700;2022-10-16T00:53:21;98211.88;;;8.77;100.00
6094;BME280;19964;42.060;24.700;2022-10-16T00:55:48;98215.25;;;8.77;100.00
6094;BME280;19964;42.060;24.700;2022-10-16T00:58:17;98213.41;;;8.65;100.00
6094;BME280;19964;42.060;24.700;2022-10-16T01:00:44;98218.41;;;8.73;100.00
6094;BME280;19964;42.060;24.700;2022-10-16T01:03:23;98233.09;;;8.66;100.00
6094;BME280;19964;42.060;24.700;2022-10-16T01:06:02;98234.28;;;8.70;100.00
6094;BME280;19964;42.060;24.700;2022-10-16T01:08:39;98237.88;;;8.69;100.00
6094;BME280;19964;42.060;24.700;2022-10-16T01:11:17;98223.72;;;8.58;100.00
6094;BME280;19964;42.060;24.700;2022-10-16T01:13:51;98242.41;;;8.54;100.00
6094;BME280;19964;42.060;24.700;2022-10-16T01:16:26;98243.38;;;8.46;100.00
6094;BME280;19964;42.060;24.700;2022-10-16T01:19:00;98243.94;;;8.42;100.00
6094;BME280;19964;42.060;24.700;2022-10-16T01:21:35;98245.50;;;8.36;100.00
6094;BME280;19964;42.060;24.700;2022-10-16T01:24:07;98243.88;;;8.29;100.00
6094;BME280;19964;42.060;24.700;2022-10-16T01:27:01;98249.66;;;8.37;100.00
6094;BME280;19964;42.060;24.700;2022-10-16T01:29:31;98249.09;;;8.42;100.00
6094;BME280;19964;42.060;24.700;2022-10-16T01:32:02;98244.75;;;8.49;100.00
6094;BME280;19964;42.060;24.700;2022-10-16T01:34:35;98248.50;;;8.40;100.00
6094;BME280;19964;42.060;24.700;2022-10-16T01:37:07;98254.22;;;8.35;100.00
6094;BME280;19964;42.060;24.700;2022-10-16T01:39:38;98254.63;;;8.32;100.00
6094;BME280;19964;42.060;24.700;2022-10-16T01:42:11;98257.31;;;8.24;100.00
6094;BME280;19964;42.060;24.700;2022-10-16T01:44:40;98258.28;;;8.17;100.00
6094;BME280;19964;42.060;24.700;2022-10-16T01:47:09;98226.03;;;7.99;100.00
6094;BME280;19964;42.060;24.700;2022-10-16T01:49:38;98263.78;;;8.13;100.00
6094;BME280;19964;42.060;24.700;2022-10-16T01:52:11;98268.53;;;8.10;100.00
6094;BME280;19964;42.060;24.700;2022-10-16T01:54:43;98268.75;;;8.08;100.00
6094;BME280;19964;42.060;24.700;2022-10-16T01:57:15;98265.16;;;8.03;100.00
6094;BME280;19964;42.060;24.700;2022-10-16T01:59:45;98269.81;;;8.21;100.00
6094;BME280;19964;42.060;24.700;2022-10-16T02:02:14;98263.03;;;8.20;100.00
6094;BME280;19964;42.060;24.700;2022-10-16T02:04:46;98255.44;;;8.05;100.00
6094;BME280;19964;42.060;24.700;2022-10-16T02:07:14;98269.00;;;8.20;100.00
6094;BME280;19964;42.060;24.700;2022-10-16T02:09:41;98263.78;;;8.07;100.00
6094;BME280;19964;42.060;24.700;2022-10-16T02:12:15;98257.22;;;8.04;100.00
6094;BME280;19964;42.060;24.700;2022-10-16T02:14:46;98262.41;;;8.11;100.00
6094;BME280;19964;42.060;24.700;2022-10-16T02:17:14;98257.34;;;7.96;100.00
6094;BME280;19964;42.060;24.700;2022-10-16T02:19:42;98262.59;;;8.09;100.00
6094;BME280;19964;42.060;24.700;2022-10-16T02:22:15;98265.94;;;8.03;100.00
6094;BME280;19964;42.060;24.700;2022-10-16T02:24:52;98267.13;;;8.07;100.00
6094;BME280;19964;42.060;24.700;2022-10-16T02:27:25;98267.34;;;8.06;100.00
6094;BME280;19964;42.060;24.700;2022-10-16T02:29:59;98268.13;;;8.06;100.00
6094;BME280;19964;42.060;24.700;2022-10-16T02:32:34;98262.50;;;7.96;100.00
6094;BME280;19964;42.060;24.700;2022-10-16T02:35:01;98267.47;;;7.98;100.00
6094;BME280;19964;42.060;24.700;2022-10-16T02:37:32;98271.47;;;8.00;100.00
6094;BME280;19964;42.060;24.700;2022-10-16T02:40:00;98269.84;;;7.93;100.00
6094;BME280;19964;42.060;24.700;2022-10-16T02:42:33;98272.63;;;7.91;100.00
6094;BME280;19964;42.060;24.700;2022-10-16T02:45:01;98274.25;;;7.99;100.00
6094;BME280;19964;42.060;24.700;2022-10-16T02:47:28;98279.59;;;7.97;100.00
6094;BME280;19964;42.060;24.700;2022-10-16T02:49:55;98273.91;;;8.08;100.00
6094;BME280;19964;42.060;24.700;2022-10-16T02:52:22;98283.63;;;8.06;100.00
6094;BME280;19964;42.060;24.700;2022-10-16T02:54:49;98282.19;;;8.04;100.00
6094;BME280;19964;42.060;24.700;2022-10-16T02:57:16;98290.59;;;8.13;100.00
6094;BME280;19964;42.060;24.700;2022-10-16T02:59:45;98288.25;;;8.18;100.00
6094;BME280;19964;42.060;24.700;2022-10-16T03:02:12;98301.28;;;8.31;100.00
6094;BME280;19964;42.060;24.700;2022-10-16T03:04:39;98295.34;;;8.37;100.00
6094;BME280;19964;42.060;24.700;2022-10-16T03:07:06;98301.53;;;8.42;100.00
6094;BME280;19964;42.060;24.700;2022-10-16T03:09:34;98286.56;;;8.31;100.00
6094;BME280;19964;42.060;24.700;2022-10-16T03:12:01;98297.78;;;8.51;100.00
6094;BME280;19964;42.060;24.700;2022-10-16T03:14:28;98290.44;;;8.48;100.00
6094;BME280;19964;42.060;24.700;2022-10-16T03:16:57;98301.22;;;8.65;100.00
6094;BME280;19964;42.060;24.700;2022-10-16T03:19:24;98301.69;;;8.75;100.00
6094;BME280;19964;42.060;24.700;2022-10-16T03:21:51;98309.44;;;8.75;100.00
6094;BME280;19964;42.060;24.700;2022-10-16T03:24:18;98306.88;;;8.88;100.00
6094;BME280;19964;42.060;24.700;2022-10-16T03:26:45;98309.88;;;8.85;100.00
6094;BME280;19964;42.060;24.700;2022-10-16T03:29:12;98310.63;;;8.85;100.00
6094;BME280;19964;42.060;24.700;2022-10-16T03:31:39;98309.09;;;8.91;100.00
6094;BME280;19964;42.060;24.700;2022-10-16T03:34:07;98310.84;;;8.84;100.00
6094;BME280;19964;42.060;24.700;2022-10-16T03:36:34;98310.06;;;8.83;100.00
6094;BME280;19964;42.060;24.700;2022-10-16T03:39:01;98308.06;;;8.79;100.00
6094;BME280;19964;42.060;24.700;2022-10-16T03:41:28;98308.66;;;8.87;100.00
6094;BME280;19964;42.060;24.700;2022-10-16T03:43:55;98323.00;;;8.90;100.00
6094;BME280;19964;42.060;24.700;2022-10-16T03:46:23;98320.81;;;8.93;100.00
6094;BME280;19964;42.060;24.700;2022-10-16T03:48:50;98319.00;;;8.87;100.00
6094;BME280;19964;42.060;24.700;2022-10-16T03:51:18;98298.44;;;8.66;100.00
6094;BME280;19964;42.060;24.700;2022-10-16T03:53:45;98329.09;;;8.76;100.00
6094;BME280;19964;42.060;24.700;2022-10-16T03:56:12;98324.16;;;8.81;100.00
6094;BME280;19964;42.060;24.700;2022-10-16T03:58:39;98330.09;;;8.75;100.00
6094;BME280;19964;42.060;24.700;2022-10-16T04:01:06;98328.06;;;8.70;100.00
6094;BME280;19964;42.060;24.700;2022-10-16T04:03:33;98332.84;;;8.67;100.00
6094;BME280;19964;42.060;24.700;2022-10-16T04:06:00;98331.22;;;8.59;100.00
6094;BME280;19964;42.060;24.700;2022-10-16T04:08:29;98315.06;;;8.51;100.00
6094;BME280;19964;42.060;24.700;2022-10-16T04:10:56;98324.16;;;8.40;100.00
6094;BME280;19964;42.060;24.700;2022-10-16T04:13:23;98317.38;;;8.39;100.00
6094;BME280;19964;42.060;24.700;2022-10-16T04:15:50;98328.38;;;8.48;100.00
6094;BME280;19964;42.060;24.700;2022-10-16T04:18:17;98281.31;;;8.18;100.00
6094;BME280;19964;42.060;24.700;2022-10-16T04:20:44;98322.41;;;8.47;100.00
6094;BME280;19964;42.060;24.700;2022-10-16T04:23:11;98310.03;;;8.36;100.00
6094;BME280;19964;42.060;24.700;2022-10-16T04:25:41;98327.84;;;8.25;100.00
6094;BME280;19964;42.060;24.700;2022-10-16T04:28:08;98328.63;;;8.25;100.00
6094;BME280;19964;42.060;24.700;2022-10-16T04:30:37;98325.38;;;8.17;100.00
6094;BME280;19964;42.060;24.700;2022-10-16T04:33:04;98334.53;;;8.19;100.00
6094;BME280;19964;42.060;24.700;2022-10-16T04:35:31;98337.47;;;8.16;100.00
6094;BME280;19964;42.060;24.700;2022-10-16T04:37:58;98323.34;;;7.84;100.00
6094;BME280;19964;42.060;24.700;2022-10-16T04:40:25;98324.81;;;7.93;100.00
6094;BME280;19964;42.060;24.700;2022-10-16T04:42:53;98314.81;;;7.84;100.00
6094;BME280;19964;42.060;24.700;2022-10-16T04:45:20;98316.19;;;7.80;100.00
6094;BME280;19964;42.060;24.700;2022-10-16T04:47:47;98325.19;;;7.90;100.00
6094;BME280;19964;42.060;24.700;2022-10-16T04:50:15;98325.97;;;7.91;100.00
6094;BME280;19964;42.060;24.700;2022-10-16T04:52:42;98325.75;;;7.86;100.00
6094;BME280;19964;42.060;24.700;2022-10-16T04:55:09;98327.47;;;7.79;100.00
6094;BME280;19964;42.060;24.700;2022-10-16T04:57:35;98333.66;;;7.84;100.00
6094;BME280;19964;42.060;24.700;2022-10-16T05:00:05;98333.31;;;7.87;100.00
6094;BME280;19964;42.060;24.700;2022-10-16T05:02:33;98341.19;;;8.07;100.00
6094;BME280;19964;42.060;24.700;2022-10-16T05:05:05;98350.03;;;8.53;100.00
6094;BME280;19964;42.060;24.700;2022-10-16T05:07:33;98359.81;;;9.05;100.00
6094;BME280;19964;42.060;24.700;2022-10-16T05:10:00;98356.78;;;9.81;100.00
6094;BME280;19964;42.060;24.700;2022-10-16T05:12:27;98373.56;;;10.31;96.65
6094;BME280;19964;42.060;24.700;2022-10-16T05:14:54;98388.59;;;10.80;91.72
6094;BME280;19964;42.060;24.700;2022-10-16T05:17:25;98404.09;;;11.44;87.79
6094;BME280;19964;42.060;24.700;2022-10-16T05:19:52;98405.34;;;11.79;83.57
6094;BME280;19964;42.060;24.700;2022-10-16T05:22:19;98407.88;;;12.17;81.38
6094;BME280;19964;42.060;24.700;2022-10-16T05:24:46;98415.06;;;12.39;79.18
6094;BME280;19964;42.060;24.700;2022-10-16T05:27:13;98421.84;;;12.83;77.08
6094;BME280;19964;42.060;24.700;2022-10-16T05:29:44;98429.38;;;13.46;74.61
6094;BME280;19964;42.060;24.700;2022-10-16T05:32:12;98434.94;;;13.31;72.66
6094;BME280;19964;42.060;24.700;2022-10-16T05:34:41;98419.38;;;13.43;72.51
6094;BME280;19964;42.060;24.700;2022-10-16T05:37:08;98431.66;;;13.95;70.41
6094;BME280;19964;42.060;24.700;2022-10-16T05:39:37;98442.81;;;14.02;69.58
6094;BME280;19964;42.060;24.700;2022-10-16T05:42:04;98442.09;;;14.36;68.27
6094;BME280;19964;42.060;24.700;2022-10-16T05:44:31;98448.03;;;14.66;67.03
6094;BME280;19964;42.060;24.700;2022-10-16T05:46:59;98450.06;;;14.53;67.40
6094;BME280;19964;42.060;24.700;2022-10-16T05:49:26;98408.19;;;14.48;66.64
6094;BME280;19964;42.060;24.700;2022-10-16T05:51:54;98462.41;;;14.69;66.40
6094;BME280;19964;42.060;24.700;2022-10-16T05:54:21;98462.41;;;14.92;66.37
6094;BME280;19964;42.060;24.700;2022-10-16T05:56:48;98459.72;;;15.50;65.02
6094;BME280;19964;42.060;24.700;2022-10-16T05:59:15;98467.47;;;16.01;62.53
6094;BME280;19964;42.060;24.700;2022-10-16T06:01:42;98461.25;;;16.68;61.41
6094;BME280;19964;42.060;24.700;2022-10-16T06:04:09;98464.63;;;16.85;60.98
6094;BME280;19964;42.060;24.700;2022-10-16T06:06:36;98449.84;;;16.96;59.30
6094;BME280;19964;42.060;24.700;2022-10-16T06:09:04;98472.66;;;17.39;58.25
6094;BME280;19964;42.060;24.700;2022-10-16T06:11:32;98479.25;;;17.41;58.04
6094;BME280;19964;42.060;24.700;2022-10-16T06:14:01;98475.56;;;17.59;58.12
6094;BME280;19964;42.060;24.700;2022-10-16T06:16:32;98474.31;;;17.45;58.11
6094;BME280;19964;42.060;24.700;2022-10-16T06:19:00;98471.53;;;18.00;56.41
6094;BME280;19964;42.060;24.700;2022-10-16T06:21:29;98472.00;;;18.55;55.63
6094;BME280;19964;42.060;24.700;2022-10-16T06:23:57;98480.75;;;19.07;53.66
6094;BME280;19964;42.060;24.700;2022-10-16T06:26:27;98467.41;;;17.17;57.63
6094;BME280;19964;42.060;24.700;2022-10-16T06:28:54;98472.91;;;15.43;62.92
6094;BME280;19964;42.060;24.700;2022-10-16T06:31:21;98464.19;;;14.34;67.08
6094;BME280;19964;42.060;24.700;2022-10-16T06:33:53;98468.63;;;14.45;68.05
6094;BME280;19964;42.060;24.700;2022-10-16T06:36:21;98475.09;;;15.23;66.78
6094;BME280;19964;42.060;24.700;2022-10-16T06:38:49;98424.25;;;14.21;67.26
6094;BME280;19964;42.060;24.700;2022-10-16T06:41:17;98475.66;;;14.03;69.06
6094;BME280;19964;42.060;24.700;2022-10-16T06:43:47;98474.19;;;14.37;68.92
6094;BME280;19964;42.060;24.700;2022-10-16T06:46:15;98478.56;;;13.95;70.21
6094;BME280;19964;42.060;24.700;2022-10-16T06:48:43;98481.63;;;13.92;69.43
6094;BME280;19964;42.060;24.700;2022-10-16T06:51:11;98483.72;;;13.83;69.66
6094;BME280;19964;42.060;24.700;2022-10-16T06:53:39;98488.97;;;13.95;69.25
6094;BME280;19964;42.060;24.700;2022-10-16T06:56:12;98489.72;;;14.02;70.57
6094;BME280;19964;42.060;24.700;2022-10-16T06:58:39;98487.53;;;14.28;68.40
6094;BME280;19964;42.060;24.700;2022-10-16T07:01:09;98489.00;;;15.40;67.49
6094;BME280;19964;42.060;24.700;2022-10-16T07:03:36;98490.94;;;15.33;64.77
6094;BME280;19964;42.060;24.700;2022-10-16T07:06:05;98486.16;;;15.53;65.34
6094;BME280;19964;42.060;24.700;2022-10-16T07:08:33;98486.03;;;15.88;64.94
6094;BME280;19964;42.060;24.700;2022-10-16T07:11:01;98499.66;;;15.90;65.45
6094;BME280;19964;42.060;24.700;2022-10-16T07:13:28;98512.53;;;16.36;63.31
6094;BME280;19964;42.060;24.700;2022-10-16T07:15:55;98508.66;;;15.54;65.06
6094;BME280;19964;42.060;24.700;2022-10-16T07:18:23;98505.97;;;14.80;67.52
6094;BME280;19964;42.060;24.700;2022-10-16T07:20:52;98499.81;;;15.21;67.21
6094;BME280;19964;42.060;24.700;2022-10-16T07:23:19;98517.59;;;15.70;65.88
6094;BME280;19964;42.060;24.700;2022-10-16T07:25:53;98518.09;;;15.21;65.94
6094;BME280;19964;42.060;24.700;2022-10-16T07:28:21;98519.78;;;15.89;65.72
6094;BME280;19964;42.060;24.700;2022-10-16T07:30:48;98525.28;;;17.16;63.19
6094;BME280;19964;42.060;24.700;2022-10-16T07:33:15;98473.75;;;16.33;62.04
6094;BME280;19964;42.060;24.700;2022-10-16T07:35:49;98522.31;;;17.29;59.62
6094;BME280;19964;42.060;24.700;2022-10-16T07:38:17;98528.53;;;17.61;60.52
6094;BME280;19964;42.060;24.700;2022-10-16T07:40:44;98523.50;;;17.21;60.06
6094;BME280;19964;42.060;24.700;2022-10-16T07:43:11;98519.25;;;17.53;60.80
6094;BME280;19964;42.060;24.700;2022-10-16T07:45:46;98517.31;;;16.72;61.29
6094;BME280;19964;42.060;24.700;2022-10-16T07:48:14;98528.28;;;16.41;60.98
6094;BME280;19964;42.060;24.700;2022-10-16T07:50:41;98514.94;;;16.71;61.52
6094;BME280;19964;42.060;24.700;2022-10-16T07:53:09;98519.19;;;16.44;61.56
6094;BME280;19964;42.060;24.700;2022-10-16T07:55:36;98518.53;;;15.17;64.95
6094;BME280;19964;42.060;24.700;2022-10-16T07:58:04;98519.88;;;16.23;64.36
6094;BME280;19964;42.060;24.700;2022-10-16T08:00:31;98502.34;;;15.67;64.01
6094;BME280;19964;42.060;24.700;2022-10-16T08:02:58;98512.28;;;17.04;62.66
6094;BME280;19964;42.060;24.700;2022-10-16T08:05:25;98525.06;;;16.84;61.16
6094;BME280;19964;42.060;24.700;2022-10-16T08:07:53;98533.16;;;16.66;60.25
6094;BME280;19964;42.060;24.700;2022-10-16T08:10:23;98511.69;;;16.80;62.09
6094;BME280;19964;42.060;24.700;2022-10-16T08:12:50;98527.34;;;16.97;60.52
6094;BME280;19964;42.060;24.700;2022-10-16T08:15:17;98525.16;;;17.65;61.10
6094;BME280;19964;42.060;24.700;2022-10-16T08:17:44;98529.84;;;17.63;58.70
6094;BME280;19964;42.060;24.700;2022-10-16T08:20:12;98527.88;;;18.24;58.19
6094;BME280;19964;42.060;24.700;2022-10-16T08:22:38;98539.31;;;19.03;55.50
6094;BME280;19964;42.060;24.700;2022-10-16T08:25:06;98531.53;;;18.49;54.64
6094;BME280;19964;42.060;24.700;2022-10-16T08:27:34;98525.16;;;17.65;59.15
6094;BME280;19964;42.060;24.700;2022-10-16T08:30:01;98510.59;;;17.53;58.21
6094;BME280;19964;42.060;24.700;2022-10-16T08:32:28;98524.97;;;17.72;57.86
6094;BME280;19964;42.060;24.700;2022-10-16T08:34:55;98517.78;;;17.62;57.34
6094;BME280;19964;42.060;24.700;2022-10-16T08:37:22;98527.53;;;18.15;55.83
6094;BME280;19964;42.060;24.700;2022-10-16T08:39:48;98522.91;;;18.01;56.55
6094;BME280;19964;42.060;24.700;2022-10-16T08:42:22;98522.88;;;18.81;56.32
6094;BME280;19964;42.060;24.700;2022-10-16T08:45:21;98523.03;;;19.06;53.82
6094;BME280;19964;42.060;24.700;2022-10-16T08:48:01;98533.16;;;18.50;54.90
6094;BME280;19964;42.060;24.700;2022-10-16T08:50:32;98533.47;;;18.32;54.03
6094;BME280;19964;42.060;24.700;2022-10-16T08:53:04;98476.41;;;18.44;55.31
6094;BME280;19964;42.060;24.700;2022-10-16T08:55:34;98537.06;;;18.85;54.36
6094;BME280;19964;42.060;24.700;2022-10-16T08:58:11;98540.31;;;19.95;53.27
6094;BME280;19964;42.060;24.700;2022-10-16T09:00:41;98536.50;;;19.66;53.69
6094;BME280;19964;42.060;24.700;2022-10-16T09:03:17;98536.81;;;19.80;51.96
6094;BME280;19964;42.060;24.700;2022-10-16T09:06:10;98532.16;;;18.93;52.11
6094;BME280;19964;42.060;24.700;2022-10-16T09:08:48;98522.97;;;19.32;51.75
6094;BME280;19964;42.060;24.700;2022-10-16T09:11:25;98519.72;;;19.20;52.43
6094;BME280;19964;42.060;24.700;2022-10-16T09:14:00;98522.25;;;19.05;52.19
6094;BME280;19964;42.060;24.700;2022-10-16T09:16:36;98529.66;;;19.13;50.36
6094;BME280;19964;42.060;24.700;2022-10-16T09:19:15;98534.84;;;18.67;51.87
6094;BME280;19964;42.060;24.700;2022-10-16T09:21:46;98533.53;;;19.06;51.07
6094;BME280;19964;42.060;24.700;2022-10-16T09:24:19;98520.72;;;19.66;50.42
6094;BME280;19964;42.060;24.700;2022-10-16T09:26:49;98534.53;;;20.13;49.46
6094;BME280;19964;42.060;24.700;2022-10-16T09:29:18;98527.94;;;19.96;48.06
6094;BME280;19964;42.060;24.700;2022-10-16T09:31:47;98516.84;;;19.74;50.20
6094;BME280;19964;42.060;24.700;2022-10-16T09:34:29;98475.84;;;18.74;51.22
6094;BME280;19964;42.060;24.700;2022-10-16T09:36:57;98524.09;;;19.46;50.89
6094;BME280;19964;42.060;24.700;2022-10-16T09:39:25;98522.81;;;19.07;50.84
6094;BME280;19964;42.060;24.700;2022-10-16T09:41:52;98522.97;;;20.09;47.72
6094;BME280;19964;42.060;24.700;2022-10-16T09:44:23;98517.50;;;20.41;46.70
6094;BME280;19964;42.060;24.700;2022-10-16T09:47:02;98516.69;;;20.96;46.71
6094;BME280;19964;42.060;24.700;2022-10-16T09:49:29;98513.28;;;20.85;46.44
6094;BME280;19964;42.060;24.700;2022-10-16T09:52:04;98511.44;;;20.76;46.14
6094;BME280;19964;42.060;24.700;2022-10-16T09:54:31;98461.38;;;19.95;45.42
6094;BME280;19964;42.060;24.700;2022-10-16T09:57:05;98486.63;;;20.97;49.09
6094;BME280;19964;42.060;24.700;2022-10-16T09:59:32;98488.78;;;20.90;46.10
6094;BME280;19964;42.060;24.700;2022-10-16T10:02:04;98490.59;;;19.99;45.97
6094;BME280;19964;42.060;24.700;2022-10-16T10:04:40;98485.63;;;20.12;47.08
6094;BME280;19964;42.060;24.700;2022-10-16T10:07:17;98474.75;;;19.84;47.60
6094;BME280;19964;42.060;24.700;2022-10-16T10:09:45;98466.53;;;19.55;46.75
6094;BME280;19964;42.060;24.700;2022-10-16T10:12:19;98439.47;;;19.60;46.79
6094;BME280;19964;42.060;24.700;2022-10-16T10:14:47;98437.75;;;20.20;46.94
6094;BME280;19964;42.060;24.700;2022-10-16T10:17:19;98473.03;;;20.39;47.08
6094;BME280;19964;42.060;24.700;2022-10-16T10:19:52;98471.91;;;20.96;46.54
6094;BME280;19964;42.060;24.700;2022-10-16T10:22:26;98470.66;;;20.38;46.33
6094;BME280;19964;42.060;24.700;2022-10-16T10:25:12;98466.38;;;20.17;46.49
6094;BME280;19964;42.060;24.700;2022-10-16T10:28:02;98474.34;;;20.37;45.36
6094;BME280;19964;42.060;24.700;2022-10-16T10:30:37;98466.09;;;21.09;45.99
6094;BME280;19964;42.060;24.700;2022-10-16T10:33:20;98466.34;;;21.81;44.45
6094;BME280;19964;42.060;24.700;2022-10-16T10:35:55;98468.31;;;21.51;43.55
6094;BME280;19964;42.060;24.700;2022-10-16T10:38:34;98462.31;;;21.30;44.07
6094;BME280;19964;42.060;24.700;2022-10-16T10:41:19;98460.13;;;20.43;43.05
6094;BME280;19964;42.060;24.700;2022-10-16T10:44:01;98458.28;;;20.33;43.48
6094;BME280;19964;42.060;24.700;2022-10-16T10:46:35;98459.31;;;20.42;43.47
6094;BME280;19964;42.060;24.700;2022-10-16T10:49:15;98457.16;;;19.99;43.68
6094;BME280;19964;42.060;24.700;2022-10-16T10:51:54;98457.22;;;20.50;43.36
6094;BME280;19964;42.060;24.700;2022-10-16T10:54:30;98444.81;;;20.05;43.18
6094;BME280;19964;42.060;24.700;2022-10-16T10:57:02;98445.63;;;20.25;41.88
6094;BME280;19964;42.060;24.700;2022-10-16T10:59:55;98440.31;;;20.81;40.89
6094;BME280;19964;42.060;24.700;2022-10-16T11:02:29;98451.69;;;20.21;41.10
6094;BME280;19964;42.060;24.700;2022-10-16T11:05:35;98448.97;;;19.86;42.54
6094;BME280;19964;42.060;24.700;2022-10-16T11:08:09;98449.03;;;20.01;42.85
6094;BME280;19964;42.060;24.700;2022-10-16T11:10:49;98450.38;;;20.38;42.96
6094;BME280;19964;42.060;24.700;2022-10-16T11:13:28;98439.50;;;21.00;41.51
6094;BME280;19964;42.060;24.700;2022-10-16T11:15:59;98440.88;;;20.42;40.93
6094;BME280;19964;42.060;24.700;2022-10-16T11:18:33;98439.00;;;19.83;41.98
6094;BME280;19964;42.060;24.700;2022-10-16T11:21:14;98427.41;;;19.64;42.78
6094;BME280;19964;42.060;24.700;2022-10-16T11:23:49;98422.22;;;20.29;42.50
6094;BME280;19964;42.060;24.700;2022-10-16T11:26:20;98419.00;;;19.82;41.77
6094;BME280;19964;42.060;24.700;2022-10-16T11:28:49;98427.69;;;20.07;41.95
6094;BME280;19964;42.060;24.700;2022-10-16T11:31:24;98425.59;;;20.09;42.29
6094;BME280;19964;42.060;24.700;2022-10-16T11:33:59;98423.19;;;19.68;41.83
6094;BME280;19964;42.060;24.700;2022-10-16T11:36:35;98426.31;;;19.54;41.92
6094;BME280;19964;42.060;24.700;2022-10-16T11:39:15;98423.50;;;19.09;43.87
6094;BME280;19964;42.060;24.700;2022-10-16T11:41:49;98426.84;;;19.62;43.98
6094;BME280;19964;42.060;24.700;2022-10-16T11:44:36;98418.94;;;19.57;44.19
6094;BME280;19964;42.060;24.700;2022-10-16T11:47:16;98431.34;;;19.76;42.84
6094;BME280;19964;42.060;24.700;2022-10-16T11:49:47;98423.50;;;20.11;42.74
6094;BME280;19964;42.060;24.700;2022-10-16T11:52:23;98429.81;;;20.71;43.16
6094;BME280;19964;42.060;24.700;2022-10-16T11:54:56;98430.88;;;20.14;40.71
6094;BME280;19964;42.060;24.700;2022-10-16T11:57:28;98428.50;;;19.93;41.10
6094;BME280;19964;42.060;24.700;2022-10-16T12:00:00;98434.25;;;19.70;40.36
6094;BME280;19964;42.060;24.700;2022-10-16T12:02:38;98427.91;;;19.71;40.71
6094;BME280;19964;42.060;24.700;2022-10-16T12:05:19;98422.97;;;20.09;40.37
6094;BME280;19964;42.060;24.700;2022-10-16T12:07:55;98410.88;;;19.98;40.73
6094;BME280;19964;42.060;24.700;2022-10-16T12:10:25;98403.44;;;19.55;41.00
6094;BME280;19964;42.060;24.700;2022-10-16T12:12:57;98431.88;;;19.78;40.70
6094;BME280;19964;42.060;24.700;2022-10-16T12:15:26;98432.66;;;19.69;41.15
6094;BME280;19964;42.060;24.700;2022-10-16T12:17:54;98430.22;;;19.42;41.32
6094;BME280;19964;42.060;24.700;2022-10-16T12:20:29;98436.72;;;19.29;41.41
6094;BME280;19964;42.060;24.700;2022-10-16T12:23:00;98436.13;;;18.65;40.76
6094;BME280;19964;42.060;24.700;2022-10-16T12:25:30;98433.75;;;19.11;41.14
6094;BME280;19964;42.060;24.700;2022-10-16T12:28:00;98433.16;;;18.99;41.34
6094;BME280;19964;42.060;24.700;2022-10-16T12:30:30;98425.50;;;18.87;40.32
6094;BME280;19964;42.060;24.700;2022-10-16T12:32:59;98419.38;;;18.77;42.01
6094;BME280;19964;42.060;24.700;2022-10-16T12:35:31;98436.84;;;18.98;41.60
6094;BME280;19964;42.060;24.700;2022-10-16T12:38:08;98430.09;;;19.22;41.70
6094;BME280;19964;42.060;24.700;2022-10-16T12:40:41;98423.56;;;19.29;42.07
6094;BME280;19964;42.060;24.700;2022-10-16T12:43:37;98351.09;;;18.72;41.78
6094;BME280;19964;42.060;24.700;2022-10-16T12:46:23;98423.72;;;19.03;40.70
6094;BME280;19964;42.060;24.700;2022-10-16T12:48:50;98445.00;;;19.06;42.59
6094;BME280;19964;42.060;24.700;2022-10-16T12:51:25;98445.28;;;19.10;41.69
6094;BME280;19964;42.060;24.700;2022-10-16T12:54:01;98427.06;;;18.88;40.38
6094;BME280;19964;42.060;24.700;2022-10-16T12:56:37;98448.38;;;18.97;41.24
6094;BME280;19964;42.060;24.700;2022-10-16T12:59:16;98442.16;;;18.66;41.57
6094;BME280;19964;42.060;24.700;2022-10-16T13:02:04;98435.59;;;18.63;40.87
6094;BME280;19964;42.060;24.700;2022-10-16T13:05:05;98447.31;;;18.93;41.50
6094;BME280;19964;42.060;24.700;2022-10-16T13:07:49;98444.59;;;18.78;41.40
6094;BME280;19964;42.060;24.700;2022-10-16T13:10:26;98449.69;;;18.94;41.40
6094;BME280;19964;42.060;24.700;2022-10-16T13:13:18;98446.09;;;18.68;40.82
6094;BME280;19964;42.060;24.700;2022-10-16T13:16:02;98455.66;;;18.43;41.93
6094;BME280;19964;42.060;24.700;2022-10-16T13:18:43;98443.44;;;18.58;42.74
6094;BME280;19964;42.060;24.700;2022-10-16T13:21:33;98454.69;;;18.54;42.58